createdAt,value
2018-07-12T00:02:26.254Z,5.37
2018-07-12T00:04:53.965Z,6.40
2018-07-12T00:07:21.687Z,5.30
2018-07-12T00:09:49.420Z,5.03
2018-07-12T00:12:17.128Z,6.23
2018-07-12T00:14:44.904Z,7.30
2018-07-12T00:17:12.618Z,5.70
2018-07-12T00:19:40.318Z,7.40
2018-07-12T00:22:08.044Z,7.13
2018-07-12T00:24:35.796Z,6.80
2018-07-12T00:27:03.488Z,5.63
2018-07-12T00:29:31.232Z,6.10
2018-07-12T00:31:58.956Z,7.37
2018-07-12T00:34:26.696Z,5.73
2018-07-12T00:36:55.071Z,5.33
2018-07-12T00:39:22.767Z,5.80
2018-07-12T00:41:50.558Z,5.43
2018-07-12T00:44:18.304Z,5.07
2018-07-12T00:46:46.046Z,4.93
2018-07-12T00:49:13.739Z,4.97
2018-07-12T00:51:41.467Z,6.03
2018-07-12T00:54:09.179Z,4.80
2018-07-12T00:56:36.911Z,5.20
2018-07-12T00:59:04.625Z,6.00
2018-07-12T01:01:32.348Z,5.83
2018-07-12T01:04:00.045Z,5.40
2018-07-12T01:06:27.781Z,5.27
2018-07-12T01:08:55.486Z,5.03
2018-07-12T01:11:23.208Z,4.80
2018-07-12T01:13:51.152Z,5.80
2018-07-12T01:16:18.865Z,5.30
2018-07-12T01:18:46.590Z,5.83
2018-07-12T01:21:14.308Z,6.57
2018-07-12T01:23:42.013Z,5.20
2018-07-12T01:26:09.721Z,5.83
2018-07-12T01:28:37.568Z,5.70
2018-07-12T01:31:05.279Z,5.53
2018-07-12T01:33:32.984Z,5.70
2018-07-12T01:36:00.729Z,6.00
2018-07-12T01:38:28.439Z,6.77
2018-07-12T01:40:56.143Z,5.33
2018-07-12T01:43:23.855Z,6.10
2018-07-12T01:45:51.660Z,5.23
2018-07-12T01:48:19.400Z,6.23
2018-07-12T01:50:47.116Z,4.83
2018-07-12T01:53:14.831Z,5.50
2018-07-12T01:55:42.535Z,6.70
2018-07-12T01:58:10.248Z,5.53
2018-07-12T02:00:38.062Z,5.60
2018-07-12T02:03:05.767Z,5.80
2018-07-12T02:05:33.556Z,5.90
2018-07-12T02:08:01.493Z,7.57
2018-07-12T02:10:29.356Z,9.77
2018-07-12T02:12:57.266Z,8.43
2018-07-12T02:15:24.972Z,7.27
2018-07-12T02:17:52.690Z,7.40
2018-07-12T02:20:20.455Z,6.03
2018-07-12T02:22:48.172Z,5.80
2018-07-12T02:25:15.913Z,9.10
2018-07-12T02:27:43.700Z,10.23
2018-07-12T02:30:11.374Z,8.30
2018-07-12T02:32:39.072Z,7.40
2018-07-12T02:35:06.887Z,7.47
2018-07-12T02:37:34.542Z,7.00
2018-07-12T02:40:02.501Z,5.87
2018-07-12T02:42:30.216Z,6.20
2018-07-12T02:44:57.911Z,6.10
2018-07-12T02:47:25.632Z,5.87
2018-07-12T02:49:53.356Z,6.00
2018-07-12T02:52:21.061Z,6.47
2018-07-12T02:54:48.760Z,7.70
2018-07-12T02:57:16.488Z,7.10
2018-07-12T02:59:44.193Z,7.40
2018-07-12T03:02:11.912Z,6.43
2018-07-12T03:04:39.631Z,6.73
2018-07-12T03:07:07.342Z,6.43
2018-07-12T03:09:35.055Z,6.33
2018-07-12T03:12:02.780Z,6.90
2018-07-12T03:14:30.490Z,8.90
2018-07-12T03:16:58.188Z,8.70
2018-07-12T03:19:25.912Z,8.07
2018-07-12T03:21:53.902Z,7.10
2018-07-12T03:24:21.637Z,7.60
2018-07-12T03:26:49.443Z,7.90
2018-07-12T03:29:17.137Z,10.13
2018-07-12T03:31:44.852Z,7.50
2018-07-12T03:34:12.557Z,8.70
2018-07-12T03:36:40.288Z,9.00
2018-07-12T03:39:08.028Z,13.10
2018-07-12T03:41:35.740Z,5.83
2018-07-12T03:44:03.515Z,6.40
2018-07-12T03:46:31.233Z,11.60
2018-07-12T03:48:59.012Z,7.43
2018-07-12T03:51:26.715Z,6.80
2018-07-12T03:53:54.420Z,8.37
2018-07-12T03:56:22.391Z,5.70
2018-07-12T03:58:50.091Z,6.50
2018-07-12T04:01:17.840Z,7.27
2018-07-12T04:03:45.549Z,8.83
2018-07-12T04:06:13.265Z,8.50
2018-07-12T04:08:41.129Z,3.97
2018-07-12T04:11:08.831Z,4.13
2018-07-12T04:13:36.772Z,4.83
2018-07-12T04:16:06.047Z,4.00
2018-07-12T04:18:33.755Z,3.97
2018-07-12T04:21:01.484Z,4.37
2018-07-12T04:23:29.192Z,4.53
2018-07-12T04:25:56.915Z,6.27
2018-07-12T04:28:24.629Z,4.17
2018-07-12T04:30:52.359Z,4.80
2018-07-12T04:33:20.270Z,8.77
2018-07-12T04:35:47.976Z,7.70
2018-07-12T04:38:15.700Z,4.80
2018-07-12T04:40:43.403Z,5.30
2018-07-12T04:43:11.108Z,4.63
2018-07-12T04:45:38.828Z,3.83
2018-07-12T04:48:06.531Z,5.03
2018-07-12T04:50:34.256Z,4.50
2018-07-12T04:53:01.958Z,5.27
2018-07-12T04:55:29.660Z,4.50
2018-07-12T04:57:57.445Z,4.40
2018-07-12T05:00:25.149Z,6.33
2018-07-12T05:02:52.865Z,6.15
2018-07-12T05:05:20.577Z,4.97
2018-07-12T05:07:48.340Z,4.23
2018-07-12T05:10:16.060Z,5.50
2018-07-12T05:12:43.760Z,5.00
2018-07-12T05:15:11.479Z,5.87
2018-07-12T05:17:39.197Z,3.90
2018-07-12T05:20:06.893Z,4.50
2018-07-12T05:22:34.619Z,3.77
2018-07-12T05:25:02.523Z,3.60
2018-07-12T05:27:30.240Z,3.53
2018-07-12T05:29:57.943Z,3.60
2018-07-12T05:32:25.652Z,4.67
2018-07-12T05:34:53.368Z,3.87
2018-07-12T05:37:22.672Z,5.50
2018-07-12T05:39:51.997Z,7.27
2018-07-12T05:42:21.312Z,6.57
2018-07-12T05:44:50.623Z,5.60
2018-07-12T05:47:20.015Z,5.90
2018-07-12T05:49:49.327Z,4.93
2018-07-12T05:52:18.664Z,3.70
2018-07-12T05:54:48.013Z,5.10
2018-07-12T05:57:17.347Z,4.70
2018-07-12T05:59:46.769Z,4.77
2018-07-12T06:02:22.863Z,5.30
2018-07-12T06:04:52.250Z,4.70
2018-07-12T06:07:26.780Z,5.57
2018-07-12T06:09:56.109Z,4.87
2018-07-12T06:12:25.541Z,4.70
2018-07-12T06:14:54.888Z,4.80
2018-07-12T06:17:24.240Z,6.93
2018-07-12T06:19:53.567Z,5.00
2018-07-12T06:22:22.891Z,5.73
2018-07-12T06:24:52.260Z,5.17
2018-07-12T06:27:21.609Z,5.40
2018-07-12T06:29:50.981Z,7.57
2018-07-12T06:32:20.299Z,5.07
2018-07-12T06:34:49.631Z,4.80
2018-07-12T06:37:19.040Z,5.57
2018-07-12T06:39:48.278Z,5.20
2018-07-12T06:42:17.665Z,4.40
2018-07-12T06:44:47.071Z,6.80
2018-07-12T06:47:16.405Z,4.57
2018-07-12T06:49:45.708Z,6.80
2018-07-12T06:52:15.168Z,5.13
2018-07-12T06:54:44.500Z,5.30
2018-07-12T06:57:13.848Z,4.87
2018-07-12T06:59:43.231Z,5.70
2018-07-12T07:02:12.563Z,4.73
2018-07-12T07:04:41.872Z,4.80
2018-07-12T07:07:11.844Z,4.30
2018-07-12T07:09:41.184Z,4.50
2018-07-12T07:12:10.514Z,3.63
2018-07-12T07:14:39.929Z,4.90
2018-07-12T07:17:09.329Z,4.30
2018-07-12T07:19:38.662Z,4.87
2018-07-12T07:22:08.028Z,4.30
2018-07-12T07:24:37.467Z,5.50
2018-07-12T07:27:07.008Z,4.13
2018-07-12T07:29:36.332Z,4.13
2018-07-12T07:32:05.755Z,3.50
2018-07-12T07:34:36.067Z,4.13
2018-07-12T07:37:05.563Z,3.30
2018-07-12T07:39:34.667Z,3.70
2018-07-12T07:42:03.802Z,4.43
2018-07-12T07:44:33.156Z,3.30
2018-07-12T07:47:02.496Z,3.83
2018-07-12T07:49:31.835Z,2.90
2018-07-12T07:52:01.306Z,3.17
2018-07-12T07:54:30.603Z,2.90
2018-07-12T07:57:00.003Z,2.77
2018-07-12T07:59:29.280Z,4.93
2018-07-12T08:01:58.624Z,3.90
2018-07-12T08:04:27.936Z,3.33
2018-07-12T08:06:57.257Z,3.27
2018-07-12T08:09:26.638Z,4.20
2018-07-12T08:11:55.908Z,3.10
2018-07-12T08:14:25.236Z,3.17
2018-07-12T08:16:54.548Z,2.90
2018-07-12T08:19:23.901Z,3.27
2018-07-12T08:22:03.864Z,3.20
2018-07-12T08:24:33.468Z,2.87
2018-07-12T08:27:03.077Z,3.20
2018-07-12T08:29:33.108Z,4.07
2018-07-12T08:32:03.737Z,3.30
2018-07-12T08:34:33.321Z,3.30
2018-07-12T08:37:02.804Z,2.90
2018-07-12T08:39:32.073Z,3.20
2018-07-12T08:42:01.384Z,2.87
2018-07-12T08:44:30.756Z,2.83
2018-07-12T08:47:00.064Z,2.30
2018-07-12T08:49:29.392Z,2.70
2018-07-12T08:51:58.697Z,1.90
2018-07-12T08:54:28.080Z,1.73
2018-07-12T08:56:57.410Z,2.20
2018-07-12T08:59:26.796Z,2.50
2018-07-12T09:01:56.263Z,2.33
2018-07-12T09:04:25.571Z,2.40
2018-07-12T09:06:54.891Z,2.83
2018-07-12T09:09:24.212Z,2.07
2018-07-12T09:11:53.568Z,2.60
2018-07-12T09:14:22.877Z,2.43
2018-07-12T09:16:52.208Z,2.97
2018-07-12T09:19:21.520Z,2.53
2018-07-12T09:21:50.883Z,2.43
2018-07-12T09:24:20.372Z,2.40
2018-07-12T09:26:49.743Z,2.87
2018-07-12T09:29:19.179Z,2.40
2018-07-12T09:31:48.439Z,2.40
2018-07-12T09:34:17.539Z,2.33
2018-07-12T09:36:47.091Z,2.73
2018-07-12T09:39:16.408Z,5.73
2018-07-12T09:41:45.775Z,2.80
2018-07-12T09:44:15.081Z,2.20
2018-07-12T09:46:44.399Z,2.33
2018-07-12T09:49:13.916Z,2.60
2018-07-12T09:51:43.141Z,3.03
2018-07-12T09:54:12.457Z,3.43
2018-07-12T09:56:52.807Z,2.50
2018-07-12T09:59:22.162Z,2.73
2018-07-12T10:01:56.881Z,2.77
2018-07-12T10:04:27.763Z,2.60
2018-07-12T10:09:40.932Z,2.70
2018-07-12T10:12:11.327Z,3.20
2018-07-12T10:14:45.849Z,2.87
2018-07-12T10:17:20.489Z,3.30
2018-07-12T10:19:49.828Z,2.70
2018-07-12T10:22:19.168Z,3.00
2018-07-12T10:24:48.487Z,2.57
2018-07-12T10:27:17.815Z,2.93
2018-07-12T10:29:47.203Z,2.40
2018-07-12T10:32:16.458Z,3.00
2018-07-12T10:34:46.045Z,2.80
2018-07-12T10:37:15.359Z,3.20
2018-07-12T10:39:44.685Z,3.27
2018-07-12T10:42:14.107Z,2.70
2018-07-12T10:44:43.716Z,3.70
2018-07-12T10:47:13.057Z,3.30
2018-07-12T10:49:42.373Z,3.30
2018-07-12T10:52:11.675Z,2.95
2018-07-12T10:54:40.992Z,3.20
2018-07-12T10:57:10.351Z,3.20
2018-07-12T10:59:39.396Z,2.70
2018-07-12T11:02:08.712Z,2.50
2018-07-12T11:04:38.219Z,2.10
2018-07-12T11:07:07.503Z,2.17
2018-07-12T11:09:36.828Z,1.73
2018-07-12T11:12:06.211Z,2.10
2018-07-12T11:14:35.521Z,2.10
2018-07-12T11:17:04.917Z,2.50
2018-07-12T11:19:34.356Z,1.90
2018-07-12T11:22:03.723Z,1.80
2018-07-12T11:24:33.149Z,1.73
2018-07-12T11:27:02.464Z,1.97
2018-07-12T11:29:49.409Z,1.73
2018-07-12T11:32:19.207Z,2.00
2018-07-12T11:34:48.556Z,1.53
2018-07-12T11:37:26.216Z,1.90
2018-07-12T11:39:55.629Z,1.40
2018-07-12T11:42:25.016Z,2.33
2018-07-12T11:44:54.325Z,1.80
2018-07-12T11:47:23.661Z,1.67
2018-07-12T11:49:52.990Z,2.20
2018-07-12T11:52:22.075Z,2.40
2018-07-12T11:54:51.434Z,2.17
2018-07-12T11:57:20.699Z,2.17
2018-07-12T11:59:50.017Z,1.67
2018-07-12T12:02:19.415Z,1.80
2018-07-12T12:04:48.751Z,2.10
2018-07-12T12:07:18.580Z,2.10
2018-07-12T12:09:47.935Z,3.00
2018-07-12T12:12:18.272Z,2.50
2018-07-12T12:14:47.627Z,2.17
2018-07-12T12:17:16.965Z,3.13
2018-07-12T12:19:46.359Z,2.30
2018-07-12T12:22:15.670Z,2.50
2018-07-12T12:24:45.069Z,2.20
2018-07-12T12:27:14.378Z,2.73
2018-07-12T12:29:43.788Z,2.20
2018-07-12T12:32:13.096Z,2.07
2018-07-12T12:34:42.433Z,2.23
2018-07-12T12:37:11.813Z,2.77
2018-07-12T12:39:41.131Z,2.70
2018-07-12T12:42:10.506Z,2.53
2018-07-12T12:44:39.836Z,2.70
2018-07-12T12:47:09.176Z,2.60
2018-07-12T12:49:38.495Z,2.83
2018-07-12T12:52:07.881Z,2.50
2018-07-12T12:54:37.188Z,2.43
2018-07-12T12:57:06.513Z,2.77
2018-07-12T12:59:35.883Z,2.43
2018-07-12T13:02:05.294Z,2.50
2018-07-12T13:04:34.612Z,2.97
2018-07-12T13:07:03.941Z,2.80
2018-07-12T13:09:33.251Z,2.27
2018-07-12T13:12:02.653Z,2.83
2018-07-12T13:14:31.966Z,2.80
2018-07-12T13:17:01.304Z,2.77
2018-07-12T13:19:30.644Z,2.60
2018-07-12T13:22:00.200Z,2.20
2018-07-12T13:24:29.532Z,2.70
2018-07-12T13:26:59.257Z,2.53
2018-07-12T13:29:28.579Z,2.40
2018-07-12T13:31:57.993Z,2.17
2018-07-12T13:34:27.279Z,2.60
2018-07-12T13:36:56.613Z,2.10
2018-07-12T13:39:25.972Z,2.37
2018-07-12T13:41:55.336Z,1.93
2018-07-12T13:44:25.427Z,2.43
2018-07-12T13:46:55.657Z,2.60
2018-07-12T13:49:24.989Z,2.20
2018-07-12T13:51:54.393Z,2.33
2018-07-12T13:54:23.772Z,2.40
2018-07-12T13:56:53.083Z,2.27
2018-07-12T13:59:22.463Z,2.40
2018-07-12T14:01:51.867Z,2.20
2018-07-12T14:04:21.275Z,2.20
2018-07-12T14:06:50.617Z,2.30
2018-07-12T14:09:19.963Z,2.47
2018-07-12T14:11:49.331Z,2.00
2018-07-12T14:14:18.643Z,2.20
2018-07-12T14:16:48.080Z,2.30
2018-07-12T14:19:17.421Z,2.07
2018-07-12T14:21:46.791Z,2.13
2018-07-12T14:24:16.167Z,2.17
2018-07-12T14:26:45.483Z,2.20
2018-07-12T14:29:14.817Z,1.70
2018-07-12T14:31:44.161Z,1.73
2018-07-12T14:34:13.563Z,1.67
2018-07-12T14:36:42.949Z,1.67
2018-07-12T14:39:12.267Z,1.47
2018-07-12T14:41:41.584Z,1.23
2018-07-12T14:44:10.932Z,1.40
2018-07-12T14:46:40.256Z,1.10
2018-07-12T14:49:09.580Z,1.40
2018-07-12T14:51:38.932Z,1.10
2018-07-12T14:54:08.256Z,1.70
2018-07-12T14:56:37.580Z,1.87
2018-07-12T14:59:06.963Z,1.40
2018-07-12T15:01:36.335Z,1.50
2018-07-12T15:04:05.619Z,1.93
2018-07-12T15:06:34.998Z,1.80
2018-07-12T15:09:05.270Z,2.00
2018-07-12T15:11:34.528Z,1.60
2018-07-12T15:14:03.939Z,2.10
2018-07-12T15:16:33.265Z,2.33
2018-07-12T15:19:03.042Z,1.87
2018-07-12T15:21:32.304Z,1.70
2018-07-12T15:24:01.681Z,1.77
2018-07-12T15:26:31.047Z,1.50
2018-07-12T15:29:00.348Z,1.60
2018-07-12T15:31:29.753Z,2.13
2018-07-12T15:33:59.035Z,1.70
2018-07-12T15:36:28.407Z,2.00
2018-07-12T15:38:57.728Z,1.80
2018-07-12T15:41:27.044Z,1.97
2018-07-12T15:43:56.145Z,2.07
2018-07-12T15:46:25.458Z,1.70
2018-07-12T15:48:54.775Z,1.85
2018-07-12T15:51:24.108Z,2.10
2018-07-12T15:53:53.420Z,2.10
2018-07-12T15:56:22.741Z,2.10
2018-07-12T15:58:52.350Z,2.80
2018-07-12T16:01:21.427Z,2.80
2018-07-12T16:03:50.756Z,3.00
2018-07-12T16:06:20.108Z,4.00
2018-07-12T16:08:49.443Z,4.10
2018-07-12T16:11:18.768Z,3.50
2018-07-12T16:13:48.154Z,4.00
2018-07-12T16:16:17.451Z,3.27
2018-07-12T16:18:46.769Z,3.50
2018-07-12T16:21:16.086Z,3.87
2018-07-12T16:23:45.413Z,3.40
2018-07-12T16:26:14.771Z,4.27
2018-07-12T16:28:44.139Z,4.00
2018-07-12T16:31:13.516Z,3.43
2018-07-12T16:33:42.832Z,3.90
2018-07-12T16:36:12.144Z,3.97
2018-07-12T16:38:41.491Z,3.70
2018-07-12T16:41:10.803Z,4.00
2018-07-12T16:43:40.133Z,4.03
2018-07-12T16:46:09.449Z,3.87
2018-07-12T16:48:38.825Z,3.87
2018-07-12T16:51:08.147Z,4.33
2018-07-12T16:53:37.803Z,4.10
2018-07-12T16:56:07.377Z,3.90
2018-07-12T16:58:36.803Z,4.43
2018-07-12T17:01:06.313Z,3.80
2018-07-12T17:03:35.640Z,3.67
2018-07-12T17:06:04.997Z,3.73
2018-07-12T17:08:34.352Z,3.10
2018-07-12T17:11:03.700Z,2.63
2018-07-12T17:13:33.071Z,2.10
2018-07-12T17:16:02.392Z,2.27
2018-07-12T17:18:31.704Z,2.20
2018-07-12T17:21:01.048Z,2.70
2018-07-12T17:23:30.397Z,2.13
2018-07-12T17:25:59.684Z,2.40
2018-07-12T17:28:29.028Z,2.40
2018-07-12T17:30:58.422Z,2.50
2018-07-12T17:33:27.897Z,2.83
2018-07-12T17:35:57.174Z,3.50
2018-07-12T17:38:26.520Z,2.90
2018-07-12T17:40:55.850Z,3.00
2018-07-12T17:43:25.156Z,3.47
2018-07-12T17:45:54.521Z,3.30
2018-07-12T17:48:23.858Z,3.57
2018-07-12T17:50:53.229Z,3.40
2018-07-12T17:53:22.646Z,3.53
2018-07-12T17:55:51.980Z,3.23
2018-07-12T17:58:21.331Z,3.83
2018-07-12T18:00:50.673Z,3.73
2018-07-12T18:03:21.943Z,4.37
2018-07-12T18:05:51.297Z,4.23
2018-07-12T18:08:20.622Z,4.90
2018-07-12T18:10:49.950Z,4.20
2018-07-12T18:13:19.284Z,4.17
2018-07-12T18:15:48.636Z,4.03
2018-07-12T18:18:18.021Z,3.62
2018-07-12T18:20:47.380Z,3.90
2018-07-12T18:23:16.873Z,3.13
2018-07-12T18:25:46.242Z,2.77
2018-07-12T18:28:15.601Z,2.83
2018-07-12T18:30:44.954Z,3.23
2018-07-12T18:33:14.291Z,2.70
2018-07-12T18:35:43.675Z,3.17
2018-07-12T18:38:13.024Z,3.23
2018-07-12T18:40:42.361Z,3.27
2018-07-12T18:43:12.985Z,3.23
2018-07-12T18:45:42.445Z,2.87
2018-07-12T18:49:39.601Z,3.37
2018-07-12T18:52:10.060Z,3.13
2018-07-12T18:54:39.767Z,2.80
2018-07-12T18:57:09.162Z,3.07
2018-07-12T18:59:38.684Z,2.87
2018-07-12T19:02:08.573Z,3.70
2018-07-12T19:04:38.063Z,2.87
2018-07-12T19:07:07.847Z,3.37
2018-07-12T19:09:37.722Z,2.60
2018-07-12T19:12:07.926Z,3.37
2018-07-12T19:14:37.886Z,3.20
2018-07-12T19:17:07.949Z,3.13
2018-07-12T19:19:38.175Z,2.63
2018-07-12T19:22:07.810Z,3.00
2018-07-12T19:24:37.630Z,3.70
2018-07-12T19:27:07.404Z,3.60
2018-07-12T19:29:37.041Z,3.47
2018-07-12T19:32:08.214Z,4.47
2018-07-12T19:34:39.584Z,4.10
2018-07-12T19:37:10.064Z,3.97
2018-07-12T19:39:39.830Z,2.90
2018-07-12T19:42:09.477Z,4.00
2018-07-12T19:44:39.332Z,4.00
2018-07-12T19:47:09.167Z,3.80
2018-07-12T19:49:39.810Z,3.35
2018-07-12T19:52:09.777Z,3.97
2018-07-12T19:54:40.534Z,3.90
2018-07-12T19:57:10.217Z,3.37
2018-07-12T19:59:40.780Z,3.70
2018-07-12T20:02:11.032Z,3.40
2018-07-12T20:04:42.611Z,3.00
2018-07-12T20:07:13.237Z,3.83
2018-07-12T20:09:45.083Z,3.33
2018-07-12T20:12:15.641Z,3.10
2018-07-12T20:14:47.074Z,3.47
2018-07-12T20:17:16.770Z,3.90
2018-07-12T20:19:47.211Z,3.47
2018-07-12T20:22:17.017Z,3.30
2018-07-12T20:24:46.648Z,3.25
2018-07-12T20:27:16.657Z,3.40
2018-07-12T20:29:46.398Z,3.30
2018-07-12T20:32:17.093Z,3.90
2018-07-12T20:34:46.847Z,3.70
2018-07-12T20:37:16.320Z,3.37
2018-07-12T20:39:45.669Z,3.60
2018-07-12T20:42:15.296Z,3.90
2018-07-12T20:44:44.648Z,3.50
2018-07-12T20:47:13.923Z,4.70
2018-07-12T20:49:43.303Z,4.10
2018-07-12T20:52:12.645Z,3.37
2018-07-12T20:54:42.031Z,3.70
2018-07-12T20:57:11.411Z,4.43
2018-07-12T20:59:40.899Z,3.80
2018-07-12T21:02:10.460Z,3.33
2018-07-12T21:04:39.788Z,3.40
2018-07-12T21:07:09.101Z,4.30
2018-07-12T21:09:38.649Z,3.80
2018-07-12T21:12:08.012Z,4.10
2018-07-12T21:14:37.364Z,4.40
2018-07-12T21:17:06.692Z,3.80
2018-07-12T21:19:35.997Z,3.13
2018-07-12T21:22:05.420Z,3.90
2018-07-12T21:24:34.756Z,3.63
2018-07-12T21:27:04.140Z,3.23
2018-07-12T21:29:33.512Z,3.97
2018-07-12T21:32:02.971Z,3.97
2018-07-12T21:34:32.312Z,2.83
2018-07-12T21:37:01.821Z,3.07
2018-07-12T21:39:31.136Z,3.47
2018-07-12T21:42:00.510Z,3.40
2018-07-12T21:44:29.929Z,3.30
2018-07-12T21:46:59.328Z,3.10
2018-07-12T21:49:28.652Z,3.23
2018-07-12T21:51:58.082Z,4.10
2018-07-12T21:54:27.496Z,4.10
2018-07-12T21:56:56.899Z,3.37
2018-07-12T21:59:26.229Z,3.27
2018-07-12T22:01:55.572Z,2.70
2018-07-12T22:04:24.915Z,2.90
2018-07-12T22:07:12.935Z,3.07
2018-07-12T22:09:42.249Z,2.73
2018-07-12T22:12:11.556Z,2.90
2018-07-12T22:14:40.884Z,2.60
2018-07-12T22:17:10.208Z,2.77
2018-07-12T22:19:39.548Z,2.63
2018-07-12T22:22:08.863Z,2.43
2018-07-12T22:24:38.241Z,2.20
2018-07-12T22:27:07.544Z,2.60
2018-07-12T22:29:36.875Z,2.50
2018-07-12T22:32:06.379Z,2.40
2018-07-12T22:34:35.687Z,2.77
2018-07-12T22:37:05.025Z,3.10
2018-07-12T22:39:34.464Z,3.00
2018-07-12T22:42:03.789Z,3.10
2018-07-12T22:44:33.094Z,3.10
2018-07-12T22:47:02.442Z,3.10
2018-07-12T22:49:31.757Z,3.23
2018-07-12T22:52:01.076Z,4.20
2018-07-12T22:54:30.448Z,4.00
2018-07-12T22:56:59.763Z,3.83
2018-07-12T22:59:29.084Z,3.33
2018-07-12T23:01:58.390Z,4.07
2018-07-12T23:04:27.826Z,4.30
2018-07-12T23:06:57.203Z,4.80
2018-07-12T23:09:26.476Z,5.83
2018-07-12T23:11:55.807Z,4.73
2018-07-12T23:14:25.162Z,4.65
2018-07-12T23:16:54.420Z,4.73
2018-07-12T23:19:24.677Z,4.70
2018-07-12T23:21:53.967Z,4.10
2018-07-12T23:24:23.300Z,5.80
2018-07-12T23:26:52.887Z,4.73
2018-07-12T23:29:22.199Z,4.50
2018-07-12T23:31:51.548Z,4.07
2018-07-12T23:34:20.879Z,3.87
2018-07-12T23:36:50.319Z,4.10
2018-07-12T23:39:19.671Z,3.73
2018-07-12T23:41:48.707Z,4.03
2018-07-12T23:44:18.060Z,4.47
2018-07-12T23:46:47.537Z,3.87
2018-07-12T23:49:16.923Z,4.23
2018-07-12T23:51:46.417Z,4.10
2018-07-12T23:54:15.713Z,4.33
2018-07-12T23:56:45.043Z,3.10
2018-07-12T23:59:14.408Z,4.15
